Time;durP1;ratioP1;P1;durP2;ratioP2;P2;SDS_P1;SDS_P2;PMS_P1;PMS_P2;Temp;Humidity;BMP_temperature;BMP_pressure;BME280_temperature;BME280_humidity;BME280_pressure;Samples;Min_cycle;Max_cycle;Signal;HPM_P1;HPM_P2
2022/06/11 00:02:26;;;;;;;7.97;3.60;;;15.40;99.90;;;;;;5039518;28;20209;-45
2022/06/11 00:04:53;;;;;;;4.53;4.15;;;15.30;99.90;;;;;;5040932;28;20272;-44
2022/06/11 00:07:25;;;;;;;5.75;4.07;;;15.40;99.90;;;;;;5038286;28;20214;-43
2022/06/11 00:09:53;;;;;;;4.05;3.70;;;15.40;99.90;;;;;;5035287;28;20238;-46
2022/06/11 00:12:21;;;;;;;5.18;4.30;;;15.30;99.90;;;;;;5035430;28;20215;-46
2022/06/11 00:14:49;;;;;;;4.10;3.70;;;15.30;99.90;;;;;;5035212;28;20205;-44
2022/06/11 00:17:19;;;;;;;4.88;4.38;;;15.20;99.90;;;;;;5035706;28;20533;-44
2022/06/11 00:19:47;;;;;;;5.85;4.40;;;15.20;99.90;;;;;;5034700;28;20229;-44
2022/06/11 00:22:17;;;;;;;11.30;4.60;;;15.20;99.90;;;;;;5035706;28;20212;-47
2022/06/11 00:24:44;;;;;;;6.63;3.65;;;15.20;99.90;;;;;;5035273;28;20365;-45
2022/06/11 00:27:13;;;;;;;6.80;3.80;;;15.20;99.90;;;;;;5035434;28;20215;-47
2022/06/11 00:29:42;;;;;;;4.68;3.20;;;15.10;99.90;;;;;;5034851;28;20233;-43
2022/06/11 00:32:11;;;;;;;4.40;3.25;;;14.90;99.90;;;;;;5035272;28;20426;-45
2022/06/11 00:34:39;;;;;;;8.20;4.57;;;14.70;99.90;;;;;;5035067;28;20205;-43
2022/06/11 00:37:08;;;;;;;5.47;3.72;;;14.60;99.90;;;;;;5034981;28;20271;-45
2022/06/11 00:39:37;;;;;;;4.72;4.32;;;14.60;99.90;;;;;;5034595;28;20236;-44
2022/06/11 00:42:11;;;;;;;4.13;3.75;;;14.60;99.90;;;;;;5034505;28;20507;-46
2022/06/11 00:44:39;;;;;;;6.80;4.30;;;14.70;99.90;;;;;;5030847;28;20385;-46
2022/06/11 00:47:20;;;;;;;4.78;4.20;;;14.70;99.90;;;;;;5035327;28;20579;-45
2022/06/11 00:49:54;;;;;;;5.90;4.88;;;14.60;99.90;;;;;;5035466;28;20253;-45
2022/06/11 00:52:36;;;;;;;4.72;3.40;;;14.50;99.90;;;;;;5035374;28;20379;-43
2022/06/11 00:55:10;;;;;;;5.13;4.65;;;14.40;99.90;;;;;;5035108;28;20241;-46
2022/06/11 00:58:02;;;;;;;4.95;4.13;;;14.50;99.90;;;;;;5035273;28;20212;-44
2022/06/11 01:00:39;;;;;;;4.88;4.47;;;14.40;99.90;;;;;;5030002;28;20248;-45
2022/06/11 01:03:15;;;;;;;7.47;5.50;;;14.40;99.90;;;;;;5035168;28;20231;-44
2022/06/11 01:05:50;;;;;;;6.75;4.30;;;14.50;99.90;;;;;;5034654;28;20208;-43
2022/06/11 01:08:17;;;;;;;4.53;4.13;;;14.50;99.90;;;;;;5035325;28;20208;-49
2022/06/11 01:11:35;;;;;;;6.47;5.18;;;14.50;99.90;;;;;;5034094;28;20449;-47
2022/06/11 01:14:33;;;;;;;4.65;4.25;;;14.50;99.90;;;;;;4969878;28;20206;-49
2022/06/11 01:17:45;;;;;;;6.13;4.25;;;14.40;99.90;;;;;;5030935;28;20204;-45
2022/06/11 01:20:29;;;;;;;7.03;4.82;;;14.40;99.90;;;;;;5032828;28;20227;-47
2022/06/11 01:23:08;;;;;;;4.97;4.35;;;14.40;99.90;;;;;;5034467;28;20234;-43
2022/06/11 01:25:44;;;;;;;4.80;4.30;;;14.20;99.90;;;;;;5039188;28;20214;-46
2022/06/11 01:28:39;;;;;;;6.43;5.05;;;14.10;99.90;;;;;;5040976;28;20214;-44
2022/06/11 01:31:31;;;;;;;5.70;5.20;;;14.20;99.90;;;;;;5046980;28;20227;-45
2022/06/11 01:34:22;;;;;;;5.68;4.40;;;14.30;99.90;;;;;;5046973;28;20203;-48
2022/06/11 01:36:55;;;;;;;7.38;6.15;;;14.20;99.90;;;;;;5029378;28;20396;-50
2022/06/11 01:39:47;;;;;;;7.88;4.88;;;14.30;99.90;;;;;;5044990;28;20242;-44
2022/06/11 01:42:27;;;;;;;8.38;5.93;;;14.30;99.90;;;;;;5043778;28;20246;-42
2022/06/11 01:45:13;;;;;;;8.10;4.85;;;14.30;99.90;;;;;;5049712;28;20411;-44
2022/06/11 01:47:42;;;;;;;6.97;5.20;;;14.20;99.90;;;;;;5035177;28;20234;-43
2022/06/11 01:50:12;;;;;;;7.20;5.53;;;14.10;99.90;;;;;;5039930;28;20235;-46
2022/06/11 01:53:17;;;;;;;8.40;5.55;;;14.10;99.90;;;;;;5028050;28;20204;-49
2022/06/11 01:55:47;;;;;;;6.25;5.15;;;14.10;99.90;;;;;;5032090;28;20495;-43
2022/06/11 01:58:33;;;;;;;7.22;5.95;;;14.00;99.90;;;;;;5033266;28;20523;-43
2022/06/11 02:01:08;;;;;;;6.90;4.80;;;14.10;99.90;;;;;;5033471;28;20460;-45
2022/06/11 02:03:46;;;;;;;8.73;6.82;;;13.90;99.90;;;;;;5027079;28;20208;-45
2022/06/11 02:06:37;;;;;;;5.72;5.22;;;13.90;99.90;;;;;;5028407;28;20254;-45
2022/06/11 02:09:31;;;;;;;6.93;6.22;;;13.90;99.90;;;;;;5034314;28;20392;-44
2022/06/11 02:12:14;;;;;;;10.32;5.57;;;13.90;99.90;;;;;;5034173;28;20211;-45
2022/06/11 02:14:47;;;;;;;7.50;5.78;;;13.80;99.90;;;;;;5028103;28;20208;-44
2022/06/11 02:17:18;;;;;;;5.60;4.55;;;13.90;99.90;;;;;;5034635;28;20205;-41
2022/06/11 02:19:57;;;;;;;5.70;5.13;;;13.90;99.90;;;;;;5033865;28;20254;-43
2022/06/11 02:22:43;;;;;;;6.65;4.65;;;13.80;99.90;;;;;;5034767;28;20208;-43
2022/06/11 02:25:22;;;;;;;4.90;4.45;;;13.70;99.90;;;;;;5031834;28;20383;-41
2022/06/11 02:27:54;;;;;;;5.55;5.05;;;13.70;99.90;;;;;;5037849;28;20222;-45
2022/06/11 02:30:25;;;;;;;7.15;5.85;;;13.80;99.90;;;;;;5037228;28;20240;-48
2022/06/11 02:32:52;;;;;;;9.40;5.38;;;13.80;99.90;;;;;;5037465;28;20204;-49
2022/06/11 02:35:36;;;;;;;7.55;6.10;;;13.60;99.90;;;;;;5037266;28;20215;-46
2022/06/11 02:38:08;;;;;;;5.97;5.47;;;13.60;99.90;;;;;;5037636;28;20208;-43
2022/06/11 02:40:48;;;;;;;6.30;5.70;;;13.60;99.90;;;;;;5036647;28;20550;-48
2022/06/11 02:43:15;;;;;;;5.70;4.55;;;13.60;99.90;;;;;;5037532;28;20222;-47
2022/06/11 02:45:42;;;;;;;6.05;5.15;;;13.60;99.90;;;;;;5037275;28;20697;-44
2022/06/11 02:48:11;;;;;;;10.70;5.30;;;13.70;99.90;;;;;;5037551;28;20208;-44
2022/06/11 02:50:42;;;;;;;5.32;4.90;;;13.70;99.90;;;;;;5037371;28;20439;-47
2022/06/11 02:53:10;;;;;;;5.53;5.07;;;13.70;99.90;;;;;;5036772;28;20204;-43
2022/06/11 02:55:39;;;;;;;9.00;5.70;;;13.70;99.90;;;;;;5035640;28;20204;-46
2022/06/11 02:58:08;;;;;;;6.68;6.07;;;13.80;99.90;;;;;;5037147;28;20204;-48
2022/06/11 03:00:42;;;;;;;6.50;5.30;;;13.80;99.90;;;;;;5037371;28;20228;-44
2022/06/11 03:03:09;;;;;;;7.53;4.63;;;13.80;99.90;;;;;;5031700;28;20215;-44
2022/06/11 03:05:38;;;;;;;6.18;4.72;;;13.90;99.90;;;;;;5037244;28;20287;-44
2022/06/11 03:08:07;;;;;;;9.93;4.90;;;13.90;99.90;;;;;;5036914;28;20211;-44
2022/06/11 03:10:37;;;;;;;5.30;4.65;;;13.80;99.90;;;;;;5036658;28;20232;-44
2022/06/11 03:13:06;;;;;;;8.13;5.35;;;13.70;99.90;;;;;;5036945;28;20547;-46
2022/06/11 03:15:34;;;;;;;6.18;5.63;;;13.70;99.90;;;;;;5036306;28;20204;-48
2022/06/11 03:18:01;;;;;;;6.25;5.28;;;13.80;99.90;;;;;;5037062;28;20210;-43
2022/06/11 03:20:31;;;;;;;5.35;4.82;;;14.00;99.90;;;;;;5032315;28;20295;-45
2022/06/11 03:22:58;;;;;;;8.10;5.15;;;14.10;99.90;;;;;;5036730;28;20215;-47
2022/06/11 03:25:26;;;;;;;6.63;4.93;;;14.30;99.90;;;;;;5036492;28;20218;-44
2022/06/11 03:27:53;;;;;;;6.63;5.38;;;14.40;99.90;;;;;;5036504;28;20530;-42
2022/06/11 03:30:21;;;;;;;5.75;4.35;;;14.70;99.90;;;;;;5036209;28;20243;-45
2022/06/11 03:32:49;;;;;;;8.60;4.90;;;15.10;99.90;;;;;;5035807;28;20488;-42
2022/06/11 03:35:17;;;;;;;8.82;5.07;;;15.40;99.90;;;;;;5036789;28;20636;-45
2022/06/11 03:37:44;;;;;;;4.07;3.70;;;15.90;99.90;;;;;;5036099;28;20212;-47
2022/06/11 03:40:12;;;;;;;5.80;4.97;;;16.60;99.90;;;;;;5036742;28;20436;-51
2022/06/11 03:42:39;;;;;;;6.30;4.63;;;17.20;99.90;;;;;;5035942;28;20784;-47
2022/06/11 03:45:08;;;;;;;4.40;4.00;;;17.90;99.90;;;;;;5036370;28;20454;-47
2022/06/11 03:47:38;;;;;;;4.97;4.57;;;18.30;99.90;;;;;;5035879;28;20420;-46
2022/06/11 03:50:08;;;;;;;11.00;3.93;;;18.60;99.90;;;;;;5036033;28;20529;-46
2022/06/11 03:52:35;;;;;;;6.30;4.37;;;18.60;99.90;;;;;;5036345;28;20550;-46
2022/06/11 03:55:03;;;;;;;5.23;4.37;;;18.70;99.90;;;;;;5030500;28;20423;-50
2022/06/11 03:57:30;;;;;;;4.43;4.03;;;18.30;99.90;;;;;;5036583;28;20445;-46
2022/06/11 03:59:58;;;;;;;6.20;3.67;;;18.10;99.90;;;;;;5035931;28;20629;-46
2022/06/11 04:02:25;;;;;;;7.97;5.80;;;18.10;99.90;;;;;;5036356;28;20415;-46
2022/06/11 04:04:52;;;;;;;4.07;3.77;;;18.40;99.90;;;;;;5035289;28;20910;-46
2022/06/11 04:07:20;;;;;;;8.00;4.90;;;18.30;99.90;;;;;;5036224;28;20449;-45
2022/06/11 04:09:47;;;;;;;4.23;3.93;;;18.20;99.90;;;;;;5031172;28;20455;-48
2022/06/11 04:12:15;;;;;;;4.93;4.53;;;18.20;99.90;;;;;;5030556;28;20450;-44
2022/06/11 04:14:47;;;;;;;4.67;4.00;;;18.20;99.90;;;;;;5023540;28;20531;-48
2022/06/11 04:17:25;;;;;;;6.57;5.40;;;18.10;99.90;;;;;;5043034;28;20440;-45
2022/06/11 04:19:53;;;;;;;4.43;4.13;;;18.00;99.90;;;;;;5039243;28;20435;-47
2022/06/11 04:22:21;;;;;;;4.77;4.47;;;17.90;99.90;;;;;;5027853;28;20464;-45
2022/06/11 04:24:49;;;;;;;4.93;4.43;;;17.80;99.90;;;;;;5040499;28;20424;-49
2022/06/11 04:27:18;;;;;;;6.60;4.50;;;17.50;99.90;;;;;;5042622;28;20437;-49
2022/06/11 04:29:49;;;;;;;5.60;5.10;;;17.50;99.90;;;;;;5044226;28;20439;-46
2022/06/11 04:32:17;;;;;;;5.63;4.60;;;17.60;99.90;;;;;;5029278;28;20444;-45
2022/06/11 04:34:47;;;;;;;5.23;4.73;;;17.50;99.90;;;;;;5025476;28;20488;-47
2022/06/11 04:37:18;;;;;;;5.07;4.10;;;17.60;99.90;;;;;;5024372;28;20438;-46
2022/06/11 04:39:49;;;;;;;6.83;4.20;;;17.90;99.90;;;;;;5023525;28;20811;-44
2022/06/11 04:42:18;;;;;;;4.80;4.37;;;17.80;99.90;;;;;;5029691;28;20417;-44
2022/06/11 04:44:46;;;;;;;4.70;4.40;;;18.00;99.90;;;;;;5033982;28;20444;-47
2022/06/11 04:47:18;;;;;;;5.33;4.80;;;17.90;99.90;;;;;;5031730;28;20402;-49
2022/06/11 04:49:46;;;;;;;5.27;3.70;;;17.90;99.90;;;;;;5027196;28;20814;-44
2022/06/11 04:52:14;;;;;;;8.00;4.33;;;17.90;99.90;;;;;;5022757;28;20499;-44
2022/06/11 04:54:41;;;;;;;5.90;4.80;;;18.10;99.90;;;;;;5026042;28;20423;-45
2022/06/11 04:57:09;;;;;;;4.90;4.23;;;18.20;99.90;;;;;;5024487;28;20449;-48
2022/06/11 04:59:36;;;;;;;5.23;4.73;;;18.20;99.90;;;;;;5028712;28;20619;-48
2022/06/11 05:02:04;;;;;;;5.63;4.97;;;18.20;99.90;;;;;;5028408;28;20422;-44
2022/06/11 05:04:32;;;;;;;4.53;4.00;;;18.30;99.90;;;;;;5028917;28;20451;-47
2022/06/11 05:07:00;;;;;;;5.27;4.77;;;18.40;99.90;;;;;;5030314;28;20425;-46
2022/06/11 05:09:30;;;;;;;10.13;5.77;;;18.40;99.90;;;;;;5029281;28;20483;-49
2022/06/11 05:11:58;;;;;;;9.20;4.80;;;18.50;99.90;;;;;;5030365;28;20459;-48
2022/06/11 05:14:25;;;;;;;4.70;4.23;;;18.70;99.90;;;;;;5029236;28;20451;-47
2022/06/11 05:16:56;;;;;;;7.67;4.87;;;19.00;99.90;;;;;;5028148;28;20416;-43
2022/06/11 05:19:23;;;;;;;4.20;3.90;;;19.10;99.90;;;;;;5030125;28;20515;-47
2022/06/11 05:21:53;;;;;;;5.80;4.23;;;19.20;99.90;;;;;;5026842;28;20442;-50
2022/06/11 05:24:20;;;;;;;8.17;5.20;;;19.20;99.90;;;;;;5031717;28;20438;-43
2022/06/11 05:26:57;;;;;;;5.97;4.57;;;19.00;99.90;;;;;;5026274;28;20455;-49
2022/06/11 05:29:31;;;;;;;5.50;5.00;;;19.10;99.90;;;;;;5031862;28;20856;-48
2022/06/11 05:31:59;;;;;;;4.93;4.30;;;19.40;99.90;;;;;;5028420;28;20478;-46
2022/06/11 05:34:27;;;;;;;4.63;4.23;;;19.50;99.90;;;;;;5031565;28;20413;-47
2022/06/11 05:36:56;;;;;;;5.83;5.23;;;19.50;99.90;;;;;;5022857;28;20443;-47
2022/06/11 05:39:25;;;;;;;3.47;3.23;;;19.70;99.90;;;;;;5029735;28;20464;-44
2022/06/11 05:41:52;;;;;;;5.33;4.40;;;19.80;99.90;;;;;;5042877;28;20772;-45
2022/06/11 05:44:21;;;;;;;5.37;3.70;;;20.10;99.90;;;;;;5032798;28;20460;-43
2022/06/11 05:46:50;;;;;;;6.23;3.30;;;20.30;99.90;;;;;;5020087;28;20549;-42
2022/06/11 05:49:22;;;;;;;4.50;3.87;;;20.30;99.90;;;;;;5031190;28;20503;-43
2022/06/11 05:51:54;;;;;;;3.77;3.40;;;20.40;99.90;;;;;;5022349;28;20733;-48
2022/06/11 05:54:25;;;;;;;9.10;4.43;;;20.60;99.90;;;;;;5043593;28;20620;-47
2022/06/11 05:56:54;;;;;;;4.10;3.70;;;20.80;99.90;;;;;;5042771;28;20481;-51
2022/06/11 05:59:26;;;;;;;2.83;2.63;;;20.90;99.90;;;;;;5041159;28;20481;-44
2022/06/11 06:01:54;;;;;;;6.20;3.30;;;21.10;99.90;;;;;;5026787;28;20414;-46
2022/06/11 06:04:22;;;;;;;5.07;3.60;;;21.30;99.90;;;;;;5028785;28;20938;-47
2022/06/11 06:06:49;;;;;;;6.30;4.10;;;21.50;99.90;;;;;;5029236;28;20639;-43
2022/06/11 06:09:16;;;;;;;4.40;4.00;;;21.30;99.90;;;;;;5048916;28;20655;-49
2022/06/11 06:11:43;;;;;;;3.70;3.37;;;21.70;99.90;;;;;;5053300;28;20814;-44
2022/06/11 06:14:10;;;;;;;3.40;2.77;;;22.00;99.90;;;;;;5029177;28;20414;-49
2022/06/11 06:16:38;;;;;;;3.57;3.27;;;22.10;99.90;;;;;;5028944;28;20610;-47
2022/06/11 06:19:05;;;;;;;3.63;3.33;;;22.20;99.90;;;;;;5029047;28;20500;-47
2022/06/11 06:21:34;;;;;;;4.10;2.20;;;22.40;99.90;;;;;;5035972;28;20439;-45
2022/06/11 06:24:02;;;;;;;3.03;2.83;;;22.90;99.90;;;;;;5048834;28;20508;-45
2022/06/11 06:26:29;;;;;;;2.50;2.30;;;23.30;99.90;;;;;;5026164;28;20829;-49
2022/06/11 06:28:56;;;;;;;3.50;3.20;;;23.90;99.90;;;;;;5022933;28;20447;-46
2022/06/11 06:31:23;;;;;;;4.83;3.60;;;24.40;99.90;;;;;;5025225;28;20789;-46
2022/06/11 06:33:51;;;;;;;2.77;2.57;;;24.20;99.90;;;;;;5021450;28;20441;-47
2022/06/11 06:36:19;;;;;;;4.10;2.90;;;24.10;99.90;;;;;;5023610;28;20605;-48
2022/06/11 06:38:47;;;;;;;3.83;3.00;;;24.10;99.90;;;;;;5024821;28;20641;-51
2022/06/11 06:41:15;;;;;;;2.87;2.53;;;24.00;99.90;;;;;;5026389;28;20645;-49
2022/06/11 06:43:42;;;;;;;3.20;2.90;;;24.20;99.90;;;;;;5021054;28;20446;-47
2022/06/11 06:46:10;;;;;;;3.30;2.50;;;24.30;99.90;;;;;;5024241;28;20680;-45
2022/06/11 06:48:38;;;;;;;3.27;2.80;;;24.70;99.90;;;;;;5030202;28;20502;-47
2022/06/11 06:51:06;;;;;;;3.17;2.33;;;25.50;99.90;;;;;;5028859;28;20545;-45
2022/06/11 06:53:34;;;;;;;3.30;2.77;;;26.70;99.90;;;;;;5026804;28;20441;-47
2022/06/11 06:56:01;;;;;;;2.90;2.70;;;27.40;99.90;;;;;;5020219;28;20443;-51
2022/06/11 06:58:29;;;;;;;3.63;2.37;;;28.00;99.90;;;;;;5022833;28;20746;-44
2022/06/11 07:00:56;;;;;;;3.70;3.03;;;28.70;99.90;;;;;;5020103;28;20446;-46
2022/06/11 07:03:23;;;;;;;3.50;2.93;;;29.60;99.90;;;;;;5033725;28;20553;-45
2022/06/11 07:05:51;;;;;;;5.67;3.40;;;31.70;97.30;;;;;;5037532;28;20509;-46
2022/06/11 07:08:18;;;;;;;5.20;3.30;;;33.10;91.60;;;;;;5032263;28;20523;-50
2022/06/11 07:10:47;;;;;;;3.20;2.80;;;33.80;87.90;;;;;;5025606;28;20557;-47
2022/06/11 07:13:15;;;;;;;3.20;2.80;;;35.20;80.40;;;;;;5026633;28;20443;-48
2022/06/11 07:15:43;;;;;;;2.33;2.13;;;37.00;72.10;;;;;;5027363;28;20506;-48
2022/06/11 07:18:20;;;;;;;2.37;2.20;;;38.30;65.40;;;;;;5025869;28;20649;-48
2022/06/11 07:20:48;;;;;;;4.43;1.90;;;39.10;59.30;;;;;;5025403;28;20470;-50
2022/06/11 07:23:25;;;;;;;1.87;1.67;;;39.40;56.60;;;;;;5026767;28;20439;-47
2022/06/11 07:25:55;;;;;;;2.30;2.20;;;39.80;56.50;;;;;;5023409;28;20489;-49
2022/06/11 07:28:37;;;;;;;2.10;1.90;;;41.20;53.00;;;;;;5028112;28;20761;-49
2022/06/11 07:31:05;;;;;;;2.20;2.00;;;41.40;50.70;;;;;;5028798;28;20487;-49
2022/06/11 07:33:32;;;;;;;1.60;1.50;;;42.50;49.30;;;;;;5027764;28;20432;-45
2022/06/11 07:35:59;;;;;;;2.33;2.13;;;43.30;47.10;;;;;;5030631;28;20449;-48
2022/06/11 07:38:28;;;;;;;3.23;2.00;;;43.20;47.10;;;;;;5028365;28;20442;-50
2022/06/11 07:40:55;;;;;;;3.70;2.47;;;41.70;47.80;;;;;;5032531;28;20468;-45
2022/06/11 07:43:23;;;;;;;4.73;2.83;;;40.50;49.00;;;;;;5037575;28;20448;-47
2022/06/11 07:45:51;;;;;;;2.23;2.13;;;41.10;48.60;;;;;;5047087;28;20442;-45
2022/06/11 07:48:19;;;;;;;2.70;2.47;;;40.00;48.80;;;;;;5028569;28;20684;-48
2022/06/11 07:50:49;;;;;;;2.17;1.97;;;40.30;48.00;;;;;;5026804;28;20471;-45
2022/06/11 07:53:19;;;;;;;2.10;1.73;;;40.60;47.60;;;;;;5039581;28;20442;-48
2022/06/11 07:55:49;;;;;;;2.67;2.47;;;40.40;47.40;;;;;;5042574;28;20443;-52
2022/06/11 07:58:17;;;;;;;1.60;1.50;;;40.40;47.30;;;;;;5031322;28;20449;-48
2022/06/11 08:00:48;;;;;;;1.73;1.63;;;40.30;47.70;;;;;;5035063;28;20717;-52
2022/06/11 08:03:18;;;;;;;3.90;1.90;;;39.60;48.20;;;;;;5033803;28;20434;-49
2022/06/11 08:05:46;;;;;;;2.10;2.00;;;39.40;48.60;;;;;;5041377;28;20447;-52
2022/06/11 08:08:17;;;;;;;1.80;1.70;;;40.20;47.50;;;;;;5032258;28;20514;-54
2022/06/11 08:10:44;;;;;;;2.37;2.23;;;41.20;46.10;;;;;;5046932;28;20825;-51
2022/06/11 08:13:13;;;;;;;1.83;1.73;;;42.30;44.50;;;;;;5032738;28;20434;-50
2022/06/11 08:15:43;;;;;;;2.07;1.80;;;43.10;43.60;;;;;;5034266;28;20433;-50
2022/06/11 08:18:11;;;;;;;2.53;2.10;;;41.50;43.60;;;;;;5050695;28;20794;-52
2022/06/11 08:20:41;;;;;;;2.07;1.87;;;42.90;43.60;;;;;;5022612;28;20509;-48
2022/06/11 08:23:09;;;;;;;1.73;1.63;;;43.70;42.40;;;;;;5034257;28;20448;-51
2022/06/11 08:25:37;;;;;;;2.17;2.00;;;44.60;41.60;;;;;;5033870;28;20765;-49
2022/06/11 08:28:06;;;;;;;2.13;1.93;;;43.10;42.30;;;;;;5041794;28;20469;-46
2022/06/11 08:30:34;;;;;;;3.80;2.20;;;42.70;42.30;;;;;;5046517;28;20571;-47
2022/06/11 08:33:02;;;;;;;2.10;1.90;;;42.60;41.80;;;;;;5043419;28;20492;-50
2022/06/11 08:35:31;;;;;;;1.90;1.80;;;41.50;42.40;;;;;;5037553;28;20608;-46
2022/06/11 08:37:59;;;;;;;1.80;1.70;;;43.10;41.20;;;;;;5043309;28;20600;-50
2022/06/11 08:40:47;;;;;;;1.63;1.53;;;42.30;40.80;;;;;;5042432;28;20483;-51
2022/06/11 08:43:28;;;;;;;7.43;2.10;;;41.80;41.80;;;;;;5048106;28;20438;-51
2022/06/11 08:46:01;;;;;;;2.50;2.27;;;39.70;42.60;;;;;;5028380;28;20761;-53
2022/06/11 08:48:32;;;;;;;15.03;1.73;;;38.30;43.70;;;;;;5026291;28;20436;-54
2022/06/11 08:51:11;;;;;;;3.10;1.50;;;39.00;43.90;;;;;;5031865;28;20558;-51
2022/06/11 08:53:39;;;;;;;5.23;2.20;;;38.10;43.30;;;;;;5030343;28;20487;-46
2022/06/11 08:56:27;;;;;;;2.30;2.00;;;38.30;43.60;;;;;;5028788;28;20438;-49
2022/06/11 08:59:08;;;;;;;4.10;3.10;;;40.00;42.20;;;;;;5029113;28;20479;-48
2022/06/11 09:01:44;;;;;;;1.63;1.53;;;40.20;42.00;;;;;;5030325;28;20440;-49
2022/06/11 09:04:35;;;;;;;1.87;1.77;;;38.30;43.30;;;;;;5021092;28;20828;-48
2022/06/11 09:07:28;;;;;;;1.60;1.50;;;38.80;42.90;;;;;;5014367;28;20439;-50
2022/06/11 09:10:14;;;;;;;2.60;1.53;;;39.40;42.50;;;;;;5024666;28;20680;-46
2022/06/11 09:12:56;;;;;;;1.60;1.50;;;39.70;42.50;;;;;;5020860;28;20493;-55
2022/06/11 09:15:34;;;;;;;1.60;1.50;;;39.90;41.50;;;;;;5022637;28;20449;-47
2022/06/11 09:18:15;;;;;;;2.00;1.90;;;40.20;41.20;;;;;;5020626;28;20469;-50
2022/06/11 09:21:23;;;;;;;1.70;1.53;;;40.90;41.50;;;;;;5022120;28;20451;-46
2022/06/11 09:24:11;;;;;;;1.60;1.50;;;39.10;41.40;;;;;;4960182;28;20706;-46
2022/06/11 09:26:44;;;;;;;2.53;2.33;;;38.20;42.80;;;;;;4974639;28;20508;-50
2022/06/11 09:29:13;;;;;;;2.90;1.70;;;36.80;43.80;;;;;;5009179;28;20806;-47
2022/06/11 09:32:07;;;;;;;6.30;1.93;;;35.20;46.00;;;;;;5030379;28;20686;-47
2022/06/11 09:34:44;;;;;;;2.90;2.10;;;35.10;45.90;;;;;;5033438;28;20500;-47
2022/06/11 09:37:30;;;;;;;2.60;1.73;;;32.30;49.60;;;;;;5038775;28;20690;-43
2022/06/11 09:40:03;;;;;;;2.87;1.67;;;30.20;52.40;;;;;;5033917;28;20809;-47
2022/06/11 09:42:36;;;;;;;2.13;2.03;;;28.60;54.70;;;;;;5030512;28;20446;-50
2022/06/11 09:45:22;;;;;;;2.20;2.00;;;28.10;56.10;;;;;;5034867;28;20455;-48
2022/06/11 09:47:55;;;;;;;2.50;2.30;;;27.50;56.60;;;;;;5029313;28;20447;-49
2022/06/11 09:50:34;;;;;;;1.70;1.60;;;27.60;57.90;;;;;;5029004;28;20473;-49
2022/06/11 09:53:10;;;;;;;1.90;1.80;;;27.70;57.00;;;;;;5033527;28;20485;-48
2022/06/11 09:55:43;;;;;;;2.80;2.53;;;27.20;57.20;;;;;;5024082;28;20408;-49
2022/06/11 09:58:50;;;;;;;3.33;2.17;;;26.70;58.20;;;;;;5031966;28;20656;-50
2022/06/11 10:01:23;;;;;;;2.50;1.60;;;26.60;58.00;;;;;;5028849;28;20595;-48
2022/06/11 10:03:55;;;;;;;1.50;1.40;;;27.00;58.20;;;;;;5034574;28;20513;-49
2022/06/11 10:06:41;;;;;;;1.67;1.57;;;27.60;57.40;;;;;;5037756;28;20439;-44
2022/06/11 10:09:32;;;;;;;15.73;2.20;;;27.90;56.90;;;;;;5037630;28;20471;-52
2022/06/11 10:12:21;;;;;;;6.37;2.60;;;27.70;57.20;;;;;;5037490;28;20487;-49
2022/06/11 10:15:00;;;;;;;2.10;2.00;;;27.70;58.10;;;;;;5032863;28;20501;-49
2022/06/11 10:17:49;;;;;;;1.90;1.80;;;27.70;57.60;;;;;;5034306;28;20455;-49
2022/06/11 10:20:36;;;;;;;1.97;1.83;;;27.60;58.50;;;;;;5037762;28;20486;-52
2022/06/11 10:23:38;;;;;;;1.63;1.53;;;27.40;58.50;;;;;;5038435;28;20441;-50
2022/06/11 10:26:18;;;;;;;3.13;1.87;;;27.20;58.10;;;;;;5035066;28;20458;-51
2022/06/11 10:28:51;;;;;;;3.10;2.20;;;27.30;58.00;;;;;;5038191;28;20444;-47
2022/06/11 10:31:24;;;;;;;5.10;1.63;;;27.60;57.90;;;;;;5037066;28;20447;-46
2022/06/11 10:33:59;;;;;;;2.70;2.03;;;27.90;58.20;;;;;;5036316;28;20472;-51
2022/06/11 10:36:50;;;;;;;4.07;2.63;;;28.30;58.40;;;;;;5028163;28;20449;-50
2022/06/11 10:39:32;;;;;;;2.70;2.50;;;28.20;57.20;;;;;;5025067;28;20866;-51
2022/06/11 10:42:47;;;;;;;2.00;1.73;;;28.30;57.40;;;;;;5031123;28;20710;-47
2022/06/11 10:45:15;;;;;;;1.77;1.67;;;28.00;58.20;;;;;;5031294;28;20448;-51
2022/06/11 10:47:48;;;;;;;1.73;1.63;;;28.30;58.90;;;;;;5026347;28;20433;-53
2022/06/11 10:50:42;;;;;;;2.40;2.20;;;27.90;57.40;;;;;;5026810;28;20637;-48
2022/06/11 10:53:21;;;;;;;2.40;1.87;;;27.20;59.10;;;;;;5025114;28;20499;-47
2022/06/11 10:55:53;;;;;;;2.10;2.00;;;27.20;59.00;;;;;;5024755;28;20427;-45
2022/06/11 10:58:27;;;;;;;2.07;1.97;;;27.50;58.90;;;;;;5031813;28;20420;-52
2022/06/11 11:01:01;;;;;;;2.00;1.60;;;27.70;58.40;;;;;;5026748;28;20631;-46
2022/06/11 11:03:48;;;;;;;1.67;1.50;;;27.80;56.90;;;;;;5032578;28;20433;-48
2022/06/11 11:06:32;;;;;;;2.20;2.00;;;27.70;57.30;;;;;;5029948;28;20438;-43
2022/06/11 11:09:12;;;;;;;2.43;2.23;;;28.00;57.70;;;;;;5016349;28;20603;-47
2022/06/11 11:11:46;;;;;;;3.50;1.63;;;27.60;57.70;;;;;;5019360;28;20438;-48
2022/06/11 11:14:32;;;;;;;1.63;1.53;;;27.40;58.80;;;;;;5022942;28;20434;-52
2022/06/11 11:17:01;;;;;;;3.07;1.67;;;27.60;58.40;;;;;;5021482;28;20430;-44
2022/06/11 11:19:33;;;;;;;2.03;1.87;;;27.90;57.80;;;;;;5022289;28;20843;-46
2022/06/11 11:22:03;;;;;;;1.83;1.73;;;28.30;57.40;;;;;;5028661;28;20444;-50
2022/06/11 11:24:34;;;;;;;1.93;1.70;;;28.40;56.50;;;;;;5026055;28;20454;-50
2022/06/11 11:27:06;;;;;;;2.43;1.60;;;28.10;56.80;;;;;;5027235;28;20445;-49
2022/06/11 11:30:00;;;;;;;1.60;1.50;;;27.90;57.90;;;;;;5025631;28;20466;-52
2022/06/11 11:32:35;;;;;;;1.33;1.30;;;27.50;58.20;;;;;;5027590;28;20452;-47
2022/06/11 11:35:20;;;;;;;1.83;1.73;;;27.10;58.20;;;;;;5019347;28;20447;-47
2022/06/11 11:38:02;;;;;;;1.90;1.67;;;26.70;58.90;;;;;;5030556;28;20735;-49
2022/06/11 11:40:34;;;;;;;1.67;1.57;;;26.60;59.40;;;;;;5025132;28;20848;-48
2022/06/11 11:43:15;;;;;;;1.20;1.20;;;26.70;59.30;;;;;;5029597;28;20433;-46
2022/06/11 11:45:48;;;;;;;3.10;2.13;;;26.90;59.30;;;;;;5047269;28;20487;-49
2022/06/11 11:48:25;;;;;;;2.27;2.00;;;27.10;59.30;;;;;;5026577;28;20444;-46
2022/06/11 11:50:58;;;;;;;2.03;1.83;;;27.60;57.90;;;;;;5025914;28;20550;-48
2022/06/11 11:53:30;;;;;;;2.60;1.60;;;27.70;57.20;;;;;;5024536;28;20712;-50
2022/06/11 11:56:01;;;;;;;1.63;1.53;;;27.90;56.80;;;;;;5025562;28;20443;-46
2022/06/11 11:58:47;;;;;;;1.73;1.37;;;27.70;56.90;;;;;;5025234;28;20818;-48
2022/06/11 12:01:23;;;;;;;1.40;1.30;;;27.20;57.30;;;;;;5028455;28;20503;-48
2022/06/11 12:04:24;;;;;;;1.97;1.87;;;26.90;59.00;;;;;;5031117;28;20463;-50
2022/06/11 12:06:57;;;;;;;2.60;1.73;;;26.80;59.40;;;;;;4978894;28;20810;-51
2022/06/11 12:09:50;;;;;;;2.30;2.10;;;26.50;59.00;;;;;;5025051;28;20477;-50
2022/06/11 12:12:34;;;;;;;1.33;1.20;;;26.60;59.40;;;;;;5031141;28;20509;-47
2022/06/11 12:15:19;;;;;;;1.70;1.60;;;27.10;58.80;;;;;;5036460;28;20454;-51
2022/06/11 12:17:54;;;;;;;1.87;1.47;;;27.70;57.10;;;;;;5030532;28;20448;-50
2022/06/11 12:20:54;;;;;;;1.30;1.20;;;28.20;56.10;;;;;;5036352;28;20445;-48
2022/06/11 12:23:25;;;;;;;2.10;1.67;;;28.70;55.00;;;;;;5036542;28;20453;-48
2022/06/11 12:26:18;;;;;;;2.37;1.67;;;28.50;54.70;;;;;;5031924;28;20452;-51
2022/06/11 12:29:20;;;;;;;1.67;1.57;;;27.70;57.00;;;;;;5032220;28;20466;-51
2022/06/11 12:31:48;;;;;;;1.40;1.30;;;27.50;57.60;;;;;;4997452;28;20437;-49
2022/06/11 12:34:18;;;;;;;1.50;1.40;;;27.30;57.80;;;;;;5035347;28;20441;-49
2022/06/11 12:37:00;;;;;;;2.50;1.33;;;27.00;59.30;;;;;;5035913;28;20432;-52
2022/06/11 12:39:36;;;;;;;1.83;1.73;;;26.50;59.60;;;;;;5030196;28;20464;-48
2022/06/11 12:42:19;;;;;;;2.00;1.53;;;26.30;61.00;;;;;;5036190;28;20531;-50
2022/06/11 12:44:56;;;;;;;1.13;1.03;;;26.40;60.70;;;;;;5029654;28;20450;-50
2022/06/11 12:47:58;;;;;;;1.43;1.33;;;26.60;60.60;;;;;;5034746;28;20412;-50
2022/06/11 12:50:50;;;;;;;3.00;1.20;;;26.70;59.90;;;;;;5030290;28;20481;-48
2022/06/11 12:53:35;;;;;;;1.70;1.60;;;26.70;59.40;;;;;;5035366;28;20488;-49
2022/06/11 12:56:11;;;;;;;1.97;1.60;;;26.60;60.30;;;;;;5035446;28;20446;-49
2022/06/11 12:58:46;;;;;;;3.53;1.77;;;26.90;60.30;;;;;;5029177;28;20695;-47
2022/06/11 13:01:22;;;;;;;1.30;1.20;;;27.30;58.70;;;;;;5034266;28;20439;-45
2022/06/11 13:03:59;;;;;;;3.53;1.70;;;27.70;58.80;;;;;;5035407;28;20445;-47
2022/06/11 13:06:48;;;;;;;1.80;1.70;;;27.70;58.20;;;;;;5035486;28;20448;-46
2022/06/11 13:09:25;;;;;;;1.47;1.37;;;28.00;57.60;;;;;;5034675;28;20496;-49
2022/06/11 13:12:08;;;;;;;3.33;1.87;;;28.60;56.70;;;;;;5035134;28;20436;-46
2022/06/11 13:15:09;;;;;;;1.90;1.73;;;29.10;56.20;;;;;;5027787;28;20442;-46
2022/06/11 13:18:01;;;;;;;2.50;1.63;;;29.90;55.30;;;;;;5035095;28;20443;-46
2022/06/11 13:20:55;;;;;;;2.80;2.40;;;29.70;54.30;;;;;;5033157;28;20471;-46
2022/06/11 13:23:47;;;;;;;1.90;1.43;;;29.40;55.50;;;;;;5035104;28;20795;-45
2022/06/11 13:26:34;;;;;;;2.10;1.70;;;28.50;56.00;;;;;;5036218;28;20485;-50